createdAt,value
2019-06-20T00:04:02.639Z,98346.14
2019-06-20T00:10:11.555Z,98352.44
2019-06-20T00:12:40.052Z,98354.77
2019-06-20T00:16:02.775Z,98354.20
2019-06-20T00:18:31.223Z,98354.23
2019-06-20T00:20:59.677Z,98363.23
2019-06-20T00:26:56.525Z,98357.33
2019-06-20T00:29:24.950Z,98358.57
2019-06-20T00:31:53.391Z,98355.63
2019-06-20T00:34:21.846Z,98355.06
2019-06-20T00:37:11.807Z,98354.15
2019-06-20T00:39:40.232Z,98358.37
2019-06-20T00:45:37.192Z,98363.24
2019-06-20T00:48:05.724Z,98355.95
2019-06-20T00:54:15.345Z,98352.38
2019-06-20T01:00:25.711Z,98360.30
2019-06-20T01:02:54.235Z,98367.41
2019-06-20T01:08:50.827Z,98383.28
2019-06-20T01:11:19.579Z,98368.26
2019-06-20T01:16:52.156Z,98370.89
2019-06-20T01:22:49.618Z,98374.38
2019-06-20T01:25:21.114Z,98378.17
2019-06-20T01:31:30.471Z,98390.50
2019-06-20T01:33:58.925Z,98393.63
2019-06-20T01:39:55.993Z,98400.84
2019-06-20T01:45:53.320Z,98412.74
2019-06-20T01:48:21.782Z,98414.46
2019-06-20T01:50:50.376Z,98414.56
2019-06-20T01:56:48.371Z,98411.27
2019-06-20T01:59:16.851Z,98404.81
2019-06-20T02:05:13.630Z,98408.66
2019-06-20T02:07:42.067Z,98402.19
2019-06-20T02:10:10.656Z,98402.29
2019-06-20T02:12:39.107Z,98404.81
2019-06-20T02:15:07.681Z,98404.82
2019-06-20T02:21:05.647Z,98409.97
2019-06-20T02:23:34.116Z,98411.94
2019-06-20T02:29:43.149Z,98415.32
2019-06-20T02:32:11.574Z,98416.23
2019-06-20T02:34:40.025Z,98421.95
2019-06-20T02:37:08.525Z,98420.17
2019-06-20T02:39:36.979Z,98425.52
2019-06-20T02:42:05.493Z,98418.76
2019-06-20T02:44:33.959Z,98423.34
2019-06-20T02:47:02.470Z,98422.59
2019-06-20T02:53:11.501Z,98422.78
2019-06-20T02:59:21.155Z,98424.76
2019-06-20T03:01:50.266Z,98428.42
2019-06-20T03:04:18.701Z,98430.00
2019-06-20T03:06:47.223Z,98428.79
2019-06-20T03:09:15.641Z,98427.17
2019-06-20T03:11:44.089Z,98433.64
2019-06-20T03:14:12.636Z,98438.53
2019-06-20T03:16:41.183Z,98442.01
2019-06-20T03:22:56.139Z,98446.41
2019-06-20T03:25:24.708Z,98453.55
2019-06-20T03:31:24.724Z,98447.80
2019-06-20T03:33:59.022Z,98452.03
2019-06-20T03:40:15.465Z,98455.97
2019-06-20T03:42:46.499Z,98469.56
2019-06-20T03:48:48.772Z,98473.98
2019-06-20T03:51:20.181Z,98473.33
2019-06-20T03:53:48.862Z,98483.34
2019-06-20T03:59:48.186Z,98484.85
2019-06-20T04:05:48.364Z,98491.90
2019-06-20T04:08:16.992Z,98488.95
2019-06-20T04:14:16.434Z,98497.14
2019-06-20T04:16:45.058Z,98496.67
2019-06-20T04:22:42.347Z,98501.99
2019-06-20T04:25:10.917Z,98506.41
2019-06-20T04:31:07.502Z,98513.06
2019-06-20T04:33:36.026Z,98513.34
2019-06-20T04:36:04.704Z,98520.46
2019-06-20T04:38:36.161Z,98524.22
2019-06-20T04:41:04.714Z,98527.80
2019-06-20T04:43:33.777Z,98527.70
2019-06-20T04:49:31.434Z,98533.42
2019-06-20T04:55:28.446Z,98534.78
2019-06-20T04:57:56.997Z,98532.13
2019-06-20T05:00:25.637Z,98528.22
2019-06-20T05:02:55.611Z,98528.22
2019-06-20T05:05:24.562Z,98534.78
2019-06-20T05:07:53.061Z,98531.02
2019-06-20T05:10:21.708Z,98530.91
2019-06-20T05:16:26.824Z,98532.78
2019-06-20T05:19:18.692Z,98530.25
2019-06-20T05:24:51.630Z,98542.73
2019-06-20T05:31:00.873Z,98550.61
2019-06-20T05:33:29.405Z,98551.53
2019-06-20T05:35:57.901Z,98552.02
2019-06-20T05:38:26.346Z,98555.92
2019-06-20T05:40:54.829Z,98554.40
2019-06-20T05:47:11.201Z,98555.66
2019-06-20T05:52:28.118Z,98567.95
2019-06-20T05:58:25.134Z,98565.66
2019-06-20T06:04:34.366Z,98571.94
2019-06-20T06:10:43.686Z,98567.53
2019-06-20T06:16:44.125Z,98578.95
2019-06-20T06:19:55.021Z,98584.59
2019-06-20T06:26:03.605Z,98574.89
2019-06-20T06:28:32.056Z,98573.56
2019-06-20T06:31:00.500Z,98576.84
2019-06-20T06:33:28.915Z,98574.80
2019-06-20T06:35:57.382Z,98580.48
2019-06-20T06:38:25.815Z,98583.06
2019-06-20T06:40:54.252Z,98579.44
2019-06-20T06:43:22.717Z,98585.70
2019-06-20T06:45:52.259Z,98585.08
2019-06-20T06:48:20.866Z,98584.30
2019-06-20T06:50:50.267Z,98581.98
2019-06-20T06:53:19.192Z,98584.91
2019-06-20T06:55:48.460Z,98581.63
2019-06-20T06:58:16.925Z,98583.23
2019-06-20T07:00:45.269Z,98588.58
2019-06-20T07:03:13.715Z,98585.20
2019-06-20T07:05:42.265Z,98582.92
2019-06-20T07:08:10.680Z,98580.99
2019-06-20T07:10:39.187Z,98574.12
2019-06-20T07:13:07.701Z,98582.08
2019-06-20T07:15:36.149Z,98578.70
2019-06-20T07:18:04.633Z,98579.91
2019-06-20T07:20:33.077Z,98575.23
2019-06-20T07:23:01.518Z,98574.01
2019-06-20T07:25:29.994Z,98574.05
2019-06-20T07:27:58.430Z,98576.59
2019-06-20T07:30:27.077Z,98577.19
2019-06-20T07:32:55.510Z,98577.44
2019-06-20T07:35:24.519Z,98581.13
2019-06-20T07:37:52.979Z,98580.67
2019-06-20T07:40:21.535Z,98574.88
2019-06-20T07:42:49.984Z,98576.16
2019-06-20T07:45:21.463Z,98584.48
2019-06-20T07:47:49.891Z,98580.44
2019-06-20T07:50:18.328Z,98581.49
2019-06-20T07:53:00.839Z,98579.09
2019-06-20T07:55:17.014Z,98578.31
2019-06-20T07:57:45.452Z,98577.05
2019-06-20T08:00:14.327Z,98584.13
2019-06-20T08:02:42.902Z,98579.27
2019-06-20T08:05:13.167Z,98574.45
2019-06-20T08:07:41.667Z,98577.41
2019-06-20T08:10:14.811Z,98582.30
2019-06-20T08:12:43.437Z,98585.05
2019-06-20T08:15:15.536Z,98573.33
2019-06-20T08:17:43.488Z,98577.63
2019-06-20T08:20:13.135Z,98576.24
2019-06-20T08:22:41.643Z,98583.86
2019-06-20T08:25:10.738Z,98582.70
2019-06-20T08:27:57.167Z,98578.92
2019-06-20T08:30:29.637Z,98589.57
2019-06-20T08:33:01.109Z,98593.00
2019-06-20T08:35:31.472Z,98597.48
2019-06-20T08:38:01.233Z,98601.07
2019-06-20T08:40:32.881Z,98597.11
2019-06-20T08:43:02.143Z,98595.99
2019-06-20T08:45:33.303Z,98597.09
2019-06-20T08:48:02.599Z,98602.14
2019-06-20T08:50:31.397Z,98590.88
2019-06-20T08:53:01.473Z,98596.14
2019-06-20T08:55:30.250Z,98586.52
2019-06-20T08:57:59.681Z,98599.61
2019-06-20T09:00:31.018Z,98605.59
2019-06-20T09:03:00.445Z,98598.77
2019-06-20T09:05:30.744Z,98598.77
2019-06-20T09:10:35.385Z,98601.60
2019-06-20T09:13:04.070Z,98593.36
2019-06-20T09:15:32.526Z,98592.91
2019-06-20T09:18:00.958Z,98592.91
2019-06-20T09:20:29.460Z,98590.01
2019-06-20T09:22:58.913Z,98587.58
2019-06-20T09:25:27.375Z,98589.75
2019-06-20T09:27:56.000Z,98594.75
2019-06-20T09:30:24.545Z,98594.09
2019-06-20T09:32:53.939Z,98594.31
2019-06-20T09:35:22.393Z,98593.20
2019-06-20T09:37:51.838Z,98595.25
2019-06-20T09:40:21.050Z,98595.57
2019-06-20T09:42:51.146Z,98602.33
2019-06-20T09:45:20.433Z,98599.73
2019-06-20T09:47:50.432Z,98594.58
2019-06-20T09:50:21.689Z,98598.20
2019-06-20T09:52:51.384Z,98598.72
2019-06-20T09:55:20.562Z,98602.89
2019-06-20T09:57:50.299Z,98610.66
2019-06-20T10:00:21.317Z,98608.25
2019-06-20T10:02:50.681Z,98605.33
2019-06-20T10:05:20.389Z,98616.84
2019-06-20T10:07:50.186Z,98604.89
2019-06-20T10:10:19.064Z,98616.13
2019-06-20T10:12:47.993Z,98620.88
2019-06-20T10:15:33.497Z,98612.31
2019-06-20T10:18:02.037Z,98617.54
2019-06-20T10:20:30.538Z,98620.48
2019-06-20T10:22:58.968Z,98625.59
2019-06-20T10:25:27.382Z,98622.80
2019-06-20T10:27:55.815Z,98621.54
2019-06-20T10:30:26.714Z,98627.99
2019-06-20T10:32:55.101Z,98620.63
2019-06-20T10:35:24.707Z,98620.52
2019-06-20T10:37:53.298Z,98617.75
2019-06-20T10:40:21.949Z,98616.59
2019-06-20T10:42:50.384Z,98618.94
2019-06-20T10:45:20.943Z,98622.08
2019-06-20T10:47:50.770Z,98634.52
2019-06-20T10:50:20.733Z,98624.25
2019-06-20T10:52:50.101Z,98621.35
2019-06-20T10:55:19.196Z,98618.45
2019-06-20T10:57:49.638Z,98625.33
2019-06-20T11:00:30.357Z,98627.16
2019-06-20T11:02:49.108Z,98622.48
2019-06-20T11:05:18.875Z,98624.40
2019-06-20T11:07:47.656Z,98619.43
2019-06-20T11:10:16.882Z,98623.27
2019-06-20T11:12:50.223Z,98632.72
2019-06-20T11:15:16.431Z,98630.20
2019-06-20T11:17:46.184Z,98625.50
2019-06-20T11:20:16.232Z,98629.13
2019-06-20T11:22:45.396Z,98636.84
2019-06-20T11:25:18.949Z,98628.61
2019-06-20T11:27:47.333Z,98626.59
2019-06-20T11:30:44.777Z,98622.17
2019-06-20T11:33:00.856Z,98627.15
2019-06-20T11:35:29.247Z,98622.91
2019-06-20T11:37:57.710Z,98624.02
2019-06-20T11:40:26.279Z,98621.41
2019-06-20T11:42:54.785Z,98611.38
2019-06-20T11:45:23.660Z,98609.78
2019-06-20T11:50:27.750Z,98617.67
2019-06-20T11:52:56.157Z,98610.52
2019-06-20T11:55:24.698Z,98614.22
2019-06-20T11:57:53.134Z,98610.24
2019-06-20T12:00:23.116Z,98609.94
2019-06-20T12:02:51.547Z,98603.54
2019-06-20T12:05:20.378Z,98607.33
2019-06-20T12:07:50.011Z,98603.30
2019-06-20T12:10:20.171Z,98593.51
2019-06-20T12:12:49.163Z,98602.41
2019-06-20T12:15:19.552Z,98601.14
2019-06-20T12:17:49.285Z,98597.78
2019-06-20T12:20:18.503Z,98590.00
2019-06-20T12:22:46.911Z,98582.69
2019-06-20T12:25:17.246Z,98587.59
2019-06-20T12:27:45.835Z,98587.11
2019-06-20T12:30:16.918Z,98586.88
2019-06-20T12:32:46.684Z,98587.16
2019-06-20T12:35:15.598Z,98591.05
2019-06-20T12:37:45.191Z,98591.51
2019-06-20T12:40:14.626Z,98593.69
2019-06-20T12:42:43.568Z,98590.08
2019-06-20T12:45:15.740Z,98595.98
2019-06-20T12:47:44.233Z,98600.59
2019-06-20T12:50:14.298Z,98594.75
2019-06-20T12:52:42.846Z,98596.06
2019-06-20T12:55:12.419Z,98600.96
2019-06-20T12:57:42.108Z,98604.78
2019-06-20T13:00:12.689Z,98599.86
2019-06-20T13:02:42.046Z,98592.60
2019-06-20T13:05:13.315Z,98589.62
2019-06-20T13:07:42.355Z,98591.41
2019-06-20T13:10:11.306Z,98592.23
2019-06-20T13:12:41.408Z,98593.77
2019-06-20T13:15:10.524Z,98593.92
2019-06-20T13:17:39.945Z,98595.32
2019-06-20T13:20:10.306Z,98602.55
2019-06-20T13:22:39.511Z,98600.44
2019-06-20T13:25:11.003Z,98589.22
2019-06-20T13:27:40.977Z,98591.62
2019-06-20T13:30:10.894Z,98584.83
2019-06-20T13:32:41.685Z,98592.93
2019-06-20T13:35:13.710Z,98587.74
2019-06-20T13:37:43.451Z,98583.05
2019-06-20T13:40:16.507Z,98588.92
2019-06-20T13:42:46.162Z,98591.25
2019-06-20T13:45:26.955Z,98594.34
2019-06-20T13:47:56.356Z,98617.83
2019-06-20T13:50:27.541Z,98647.95
2019-06-20T13:52:56.009Z,98651.83
2019-06-20T13:55:24.593Z,98658.23
2019-06-20T13:57:53.213Z,98667.13
2019-06-20T14:00:23.577Z,98674.84
2019-06-20T14:02:52.202Z,98674.65
2019-06-20T14:05:20.973Z,98673.05
2019-06-20T14:07:52.912Z,98680.54
2019-06-20T14:10:20.215Z,98679.75
2019-06-20T14:12:49.042Z,98677.67
2019-06-20T14:15:17.587Z,98677.20
2019-06-20T14:17:47.167Z,98679.19
2019-06-20T14:20:16.604Z,98681.87
2019-06-20T14:22:45.260Z,98691.25
2019-06-20T14:25:13.769Z,98678.75
2019-06-20T14:27:42.336Z,98685.23
2019-06-20T14:30:13.526Z,98686.38
2019-06-20T14:32:43.994Z,98679.96
2019-06-20T14:35:16.258Z,98690.50
2019-06-20T14:37:46.070Z,98690.24
2019-06-20T14:40:16.136Z,98704.04
2019-06-20T14:42:45.950Z,98705.53
2019-06-20T14:45:15.161Z,98701.88
2019-06-20T14:47:43.718Z,98686.35
2019-06-20T14:50:12.982Z,98694.30
2019-06-20T14:52:42.698Z,98698.23
2019-06-20T14:55:12.486Z,98690.33
2019-06-20T14:57:41.115Z,98693.45
2019-06-20T15:00:11.203Z,98694.81
2019-06-20T15:02:39.643Z,98694.41
2019-06-20T15:05:16.839Z,98702.68
2019-06-20T15:07:47.231Z,98702.73
2019-06-20T15:10:19.453Z,98703.14
2019-06-20T15:12:49.852Z,98707.31
2019-06-20T15:15:18.303Z,98706.08
2019-06-20T15:17:49.504Z,98710.13
2019-06-20T15:20:17.109Z,98711.30
2019-06-20T15:22:47.004Z,98715.69
2019-06-20T15:25:16.193Z,98715.45
2019-06-20T15:27:47.254Z,98713.58
2019-06-20T15:30:15.145Z,98715.97
2019-06-20T15:32:55.591Z,98714.12
2019-06-20T15:35:14.088Z,98718.97
2019-06-20T15:37:42.515Z,98718.14
2019-06-20T15:40:12.194Z,98719.14
2019-06-20T15:42:40.633Z,98723.98
2019-06-20T15:45:10.913Z,98730.03
2019-06-20T15:47:39.347Z,98727.32
2019-06-20T15:50:09.425Z,98722.80
2019-06-20T15:52:37.907Z,98723.05
2019-06-20T15:55:07.639Z,98718.98
2019-06-20T15:57:36.615Z,98718.98
2019-06-20T16:00:09.581Z,98721.63
2019-06-20T16:02:38.015Z,98713.98
2019-06-20T16:05:08.182Z,98713.52
2019-06-20T16:07:37.072Z,98714.19
2019-06-20T16:10:09.702Z,98710.95
2019-06-20T16:12:38.149Z,98716.86
2019-06-20T16:15:11.599Z,98709.54
2019-06-20T16:17:40.113Z,98715.88
2019-06-20T16:20:09.092Z,98713.95
2019-06-20T16:22:37.584Z,98708.09
2019-06-20T16:25:12.766Z,98719.48
2019-06-20T16:27:41.700Z,98717.48
2019-06-20T16:30:13.236Z,98709.76
2019-06-20T16:32:41.862Z,98710.27
2019-06-20T16:35:10.731Z,98710.44
2019-06-20T16:37:39.180Z,98706.62
2019-06-20T16:40:09.024Z,98706.77
2019-06-20T16:42:37.554Z,98701.28
2019-06-20T16:45:09.107Z,98700.93
2019-06-20T16:47:37.727Z,98701.69
2019-06-20T16:50:07.614Z,98705.61
2019-06-20T16:52:36.222Z,98702.16
2019-06-20T16:55:08.592Z,98709.90
2019-06-20T16:57:36.994Z,98712.42
2019-06-20T17:00:09.595Z,98719.78
2019-06-20T17:02:38.086Z,98725.20
2019-06-20T17:05:07.222Z,98729.65
2019-06-20T17:07:35.642Z,98727.34
2019-06-20T17:10:06.853Z,98724.33
2019-06-20T17:12:35.403Z,98734.57
2019-06-20T17:15:04.789Z,98745.52
2019-06-20T17:17:33.267Z,98745.00
2019-06-20T17:20:01.803Z,98752.69
2019-06-20T17:22:30.426Z,98752.88
2019-06-20T17:24:58.887Z,98755.80
2019-06-20T17:27:27.335Z,98758.78
2019-06-20T17:29:55.815Z,98760.86
2019-06-20T17:32:24.265Z,98763.39
2019-06-20T17:34:52.661Z,98762.02
2019-06-20T17:37:21.070Z,98760.84
2019-06-20T17:39:49.519Z,98764.01
2019-06-20T17:42:17.968Z,98760.00
2019-06-20T17:44:46.388Z,98757.48
2019-06-20T17:47:14.800Z,98757.36
2019-06-20T17:49:43.201Z,98764.28
2019-06-20T17:52:11.716Z,98759.46
2019-06-20T17:54:40.195Z,98765.02
2019-06-20T17:57:08.646Z,98760.92
2019-06-20T17:59:37.064Z,98769.23
2019-06-20T18:02:06.184Z,98772.92
2019-06-20T18:04:35.580Z,98777.72
2019-06-20T18:07:04.169Z,98784.43
2019-06-20T18:09:32.625Z,98784.50
2019-06-20T18:12:01.030Z,98785.92
2019-06-20T18:14:29.485Z,98786.92
2019-06-20T18:16:57.990Z,98786.73
2019-06-20T18:19:26.474Z,98782.14
2019-06-20T18:21:54.894Z,98784.53
2019-06-20T18:24:23.312Z,98792.28
2019-06-20T18:26:51.781Z,98798.30
2019-06-20T18:29:20.304Z,98795.55
2019-06-20T18:31:48.721Z,98799.65
2019-06-20T18:34:29.516Z,98800.25
2019-06-20T18:36:47.362Z,98797.64
2019-06-20T18:39:15.838Z,98799.70
2019-06-20T18:41:47.477Z,98804.89
2019-06-20T18:44:17.505Z,98803.39
2019-06-20T18:46:46.084Z,98801.22
2019-06-20T18:49:14.518Z,98803.48
2019-06-20T18:51:42.982Z,98801.19
2019-06-20T18:54:11.374Z,98799.28
2019-06-20T18:56:39.840Z,98797.88
2019-06-20T18:59:08.278Z,98804.36
2019-06-20T19:01:36.779Z,98807.38
2019-06-20T19:04:05.564Z,98814.70
2019-06-20T19:06:36.337Z,98812.58
2019-06-20T19:09:07.275Z,98825.05
2019-06-20T19:11:35.669Z,98828.86
2019-06-20T19:14:04.381Z,98827.38
2019-06-20T19:16:32.875Z,98831.64
2019-06-20T19:19:01.792Z,98834.09
2019-06-20T19:21:30.382Z,98829.80
2019-06-20T19:24:00.205Z,98843.09
2019-06-20T19:26:28.686Z,98839.19
2019-06-20T19:28:57.150Z,98842.97
2019-06-20T19:31:25.582Z,98846.59
2019-06-20T19:33:54.037Z,98847.05
2019-06-20T19:36:22.457Z,98845.42
2019-06-20T19:38:50.899Z,98849.09
2019-06-20T19:41:19.351Z,98852.17
2019-06-20T19:43:47.775Z,98858.07
2019-06-20T19:46:16.647Z,98874.59
2019-06-20T19:48:45.139Z,98880.34
2019-06-20T19:51:13.609Z,98889.34
2019-06-20T19:53:45.861Z,98891.05
2019-06-20T19:56:12.435Z,98902.22
2019-06-20T19:58:40.965Z,98904.70
2019-06-20T20:01:09.465Z,98903.73
2019-06-20T20:03:38.078Z,98905.20
2019-06-20T20:06:06.620Z,98900.27
2019-06-20T20:08:35.106Z,98904.70
2019-06-20T20:11:03.571Z,98907.20
2019-06-20T20:13:31.987Z,98911.97
2019-06-20T20:16:00.609Z,98912.11
2019-06-20T20:18:29.073Z,98908.21
2019-06-20T20:20:57.524Z,98911.02
2019-06-20T20:23:26.042Z,98910.44
2019-06-20T20:25:54.638Z,98914.91
2019-06-20T20:28:23.119Z,98917.36
2019-06-20T20:30:53.644Z,98924.28
2019-06-20T20:33:21.727Z,98930.33
2019-06-20T20:35:50.162Z,98926.56
2019-06-20T20:38:18.585Z,98926.91
2019-06-20T20:40:47.051Z,98924.66
2019-06-20T20:43:15.621Z,98927.36
2019-06-20T20:45:44.221Z,98928.84
2019-06-20T20:48:12.688Z,98924.05
2019-06-20T20:50:41.170Z,98926.33
2019-06-20T20:53:09.593Z,98924.53
2019-06-20T20:55:38.116Z,98925.81
2019-06-20T20:58:06.555Z,98926.21
2019-06-20T21:00:44.116Z,98933.23
2019-06-20T21:03:12.652Z,98935.20
2019-06-20T21:05:50.879Z,98943.69
2019-06-20T21:08:11.519Z,98938.28
2019-06-20T21:10:39.978Z,98947.05
2019-06-20T21:13:08.387Z,98949.30
2019-06-20T21:15:36.874Z,98949.92
2019-06-20T21:18:05.464Z,98953.61
2019-06-20T21:20:33.887Z,98951.68
2019-06-20T21:23:02.339Z,98948.41
2019-06-20T21:25:32.339Z,98955.98
2019-06-20T21:28:01.025Z,98953.36
2019-06-20T21:30:29.511Z,98959.46
2019-06-20T21:32:57.981Z,98962.91
2019-06-20T21:35:26.438Z,98961.05
2019-06-20T21:37:54.882Z,98973.63
2019-06-20T21:40:23.467Z,98974.16
2019-06-20T21:42:51.916Z,98978.56
2019-06-20T21:45:20.963Z,98985.74
2019-06-20T21:47:49.396Z,98990.05
2019-06-20T21:50:17.967Z,98992.66
2019-06-20T21:52:46.425Z,98997.54
2019-06-20T21:55:15.043Z,99004.39
2019-06-20T21:57:43.479Z,99007.41
2019-06-20T22:00:37.755Z,99002.37
2019-06-20T22:03:06.904Z,99001.06
2019-06-20T22:05:35.424Z,99001.31
2019-06-20T22:08:04.192Z,99004.64
2019-06-20T22:10:32.595Z,99002.47
2019-06-20T22:13:01.105Z,99006.55
2019-06-20T22:15:29.611Z,99013.11
2019-06-20T22:17:58.057Z,99010.02
2019-06-20T22:20:26.630Z,99013.64
2019-06-20T22:22:55.109Z,99007.77
2019-06-20T22:25:24.727Z,99001.45
2019-06-20T22:27:53.169Z,99004.27
2019-06-20T22:30:30.295Z,99003.90
2019-06-20T22:32:58.759Z,99011.16
2019-06-20T22:35:27.182Z,99001.03
2019-06-20T22:37:55.588Z,99004.34
2019-06-20T22:40:24.035Z,99001.13
2019-06-20T22:42:52.457Z,99004.16
2019-06-20T22:45:21.782Z,99003.52
2019-06-20T22:47:50.190Z,99003.59
2019-06-20T22:50:18.786Z,99010.02
2019-06-20T22:52:47.267Z,99013.02
2019-06-20T22:55:15.694Z,99009.31
2019-06-20T22:57:44.149Z,99014.48
2019-06-20T23:00:13.919Z,99012.77
2019-06-20T23:02:42.475Z,99011.45
2019-06-20T23:05:11.060Z,99015.53
2019-06-20T23:07:39.555Z,99015.23
2019-06-20T23:10:11.214Z,99011.50
2019-06-20T23:12:40.009Z,99019.70
2019-06-20T23:15:09.486Z,99020.15
2019-06-20T23:17:38.026Z,99019.85
2019-06-20T23:20:10.528Z,99022.69
2019-06-20T23:22:39.056Z,99027.23
2019-06-20T23:25:08.847Z,99033.22
2019-06-20T23:27:37.290Z,99035.92
2019-06-20T23:30:13.138Z,99042.36
2019-06-20T23:32:41.625Z,99038.06
2019-06-20T23:35:11.712Z,99045.73
2019-06-20T23:37:40.161Z,99046.67
2019-06-20T23:40:10.135Z,99043.19
2019-06-20T23:42:38.650Z,99045.44
2019-06-20T23:45:08.200Z,99041.83
2019-06-20T23:47:36.748Z,99033.72
2019-06-20T23:50:09.203Z,99031.95
2019-06-20T23:52:39.279Z,99034.38
2019-06-20T23:55:08.193Z,99043.46
2019-06-20T23:57:36.609Z,99042.58
